createdAt,value
2022-11-29T00:05:26.990Z,1017.46
2022-11-29T00:20:42.953Z,1017.41
2022-11-29T00:35:58.896Z,1017.27
2022-11-29T00:51:15.888Z,1017.16
2022-11-29T01:06:31.853Z,1017.11
2022-11-29T01:21:47.842Z,1017
2022-11-29T01:37:04.807Z,1017.02
2022-11-29T01:37:49.641Z,1017.02
2022-11-29T01:52:23.728Z,1016.94
2022-11-29T02:07:39.804Z,1016.99
2022-11-29T02:22:55.673Z,1017.02
2022-11-29T02:38:11.656Z,1017.16
2022-11-29T02:53:28.629Z,1017.13
2022-11-29T03:08:45.842Z,1017.07
2022-11-29T03:24:02.537Z,1016.85
2022-11-29T03:39:19.552Z,1016.91
2022-11-29T03:54:36.468Z,1016.91
2022-11-29T04:09:52.483Z,1016.99
2022-11-29T04:25:08.428Z,1017.07
2022-11-29T04:40:24.420Z,1017.21
2022-11-29T04:55:41.360Z,1017.29
2022-11-29T05:10:58.360Z,1017.32
2022-11-29T05:26:15.311Z,1017.43
2022-11-29T05:41:31.323Z,1017.51
2022-11-29T05:56:50.246Z,1017.46
2022-11-29T06:12:06.237Z,1017.54
2022-11-29T06:27:22.196Z,1017.65
2022-11-29T06:42:38.169Z,1017.71
2022-11-29T06:57:55.152Z,1017.87
2022-11-29T07:13:11.086Z,1018.04
2022-11-29T07:28:28.086Z,1017.95
2022-11-29T07:43:45.031Z,1018.04
2022-11-29T07:59:02.041Z,1018.06
2022-11-29T08:14:17.977Z,1018.04
2022-11-29T08:29:33.930Z,1018.12
2022-11-29T08:44:49.891Z,1018.23
2022-11-29T09:00:06.881Z,1018.31
2022-11-29T09:15:22.829Z,1018.42
2022-11-29T09:30:39.805Z,1018.53
2022-11-29T09:45:52.913Z,1018.59
2022-11-29T10:01:08.809Z,1018.61
2022-11-29T10:01:49.639Z,1018.61
2022-11-29T10:16:25.759Z,1018.5
2022-11-29T10:23:30.230Z,1018.48
2022-11-29T10:38:47.704Z,1018.42
2022-11-29T10:54:05.642Z,1018.47
2022-11-29T11:09:22.650Z,1018.25
2022-11-29T11:24:38.584Z,1018.22
2022-11-29T11:39:54.643Z,1018.13
2022-11-29T11:55:11.522Z,1018.08
2022-11-29T12:10:27.519Z,1018.04
2022-11-29T12:25:43.576Z,1018.08
2022-11-29T12:40:59.447Z,1018.03
2022-11-29T12:56:16.397Z,1018
2022-11-29T13:11:33.407Z,1018.03
2022-11-29T13:26:50.314Z,1018
2022-11-29T13:42:06.337Z,1017.96
2022-11-29T13:57:24.306Z,1018.03
2022-11-29T14:12:41.243Z,1017.97
2022-11-29T14:27:58.249Z,1018.03
2022-11-29T14:43:14.194Z,1017.94
2022-11-29T14:58:33.178Z,1017.8
2022-11-29T15:13:49.098Z,1018.03
2022-11-29T15:29:06.102Z,1018.1
2022-11-29T15:44:23.051Z,1018.19
2022-11-29T15:59:41.032Z,1018.21
2022-11-29T16:14:56.983Z,1018.24
2022-11-29T16:30:12.962Z,1018.24
2022-11-29T16:45:29.008Z,1018.32
2022-11-29T17:00:45.976Z,1018.3
2022-11-29T17:16:01.867Z,1018.46
2022-11-29T17:31:18.883Z,1018.65
2022-11-29T17:46:35.825Z,1018.65
2022-11-29T18:01:52.861Z,1018.65
2022-11-29T18:17:08.802Z,1018.63
2022-11-29T18:32:24.718Z,1018.68
2022-11-29T18:47:40.720Z,1018.66
2022-11-29T19:02:57.680Z,1018.85
2022-11-29T19:18:13.638Z,1018.98
2022-11-29T19:33:30.622Z,1018.93
2022-11-29T19:48:47.605Z,1018.93
2022-11-29T20:04:04.526Z,1018.88
2022-11-29T20:19:20.516Z,1018.88
2022-11-29T20:34:36.473Z,1019.01
2022-11-29T20:49:52.470Z,1019.07
2022-11-29T21:05:09.429Z,1019.07
2022-11-29T21:20:26.382Z,1019.07
2022-11-29T21:35:43.394Z,1019.07
2022-11-29T21:50:55.320Z,1019.1
2022-11-29T22:06:12.330Z,1019.15
2022-11-29T22:21:29.273Z,1019.32
2022-11-29T22:36:45.264Z,1019.29
2022-11-29T22:52:02.183Z,1019.32
2022-11-29T23:07:18.258Z,1019.27
2022-11-29T23:22:34.118Z,1019.32
2022-11-29T23:37:50.137Z,1019.35
2022-11-29T23:53:07.050Z,1019.32
